createdAt,value
2019-04-03T00:00:39.500Z,37.20
2019-04-03T00:03:00.089Z,33.48
2019-04-03T00:05:20.869Z,36.58
2019-04-03T00:07:41.505Z,36.15
2019-04-03T00:10:02.151Z,34.05
2019-04-03T00:12:22.794Z,31.25
2019-04-03T00:14:43.531Z,31.80
2019-04-03T00:17:04.181Z,35.15
2019-04-03T00:19:24.721Z,38.90
2019-04-03T00:21:45.563Z,35.88
2019-04-03T00:24:07.246Z,30.35
2019-04-03T00:26:30.341Z,33.67
2019-04-03T00:28:50.718Z,33.18
2019-04-03T00:31:12.341Z,28.90
2019-04-03T00:33:32.878Z,31.33
2019-04-03T00:35:53.937Z,33.55
2019-04-03T00:38:15.794Z,31.25
2019-04-03T00:40:36.299Z,31.93
2019-04-03T00:42:57.090Z,33.80
2019-04-03T00:45:17.790Z,31.23
2019-04-03T00:47:38.453Z,28.47
2019-04-03T00:49:59.164Z,30.40
2019-04-03T00:52:20.014Z,33.13
2019-04-03T00:54:40.573Z,30.65
2019-04-03T00:57:01.580Z,33.38
2019-04-03T00:59:22.163Z,34.03
2019-04-03T01:01:42.741Z,35.43
2019-04-03T01:04:03.330Z,34.20
2019-04-03T01:06:23.977Z,34.90
2019-04-03T01:08:44.549Z,37.83
2019-04-03T01:11:05.935Z,31.55
2019-04-03T01:13:26.535Z,29.87
2019-04-03T01:15:47.102Z,34.23
2019-04-03T01:18:07.708Z,30.57
2019-04-03T01:20:28.374Z,34.65
2019-04-03T01:22:48.956Z,31.62
2019-04-03T01:25:09.634Z,35.30
2019-04-03T01:27:30.483Z,32.23
2019-04-03T01:29:51.035Z,31.73
2019-04-03T01:32:11.604Z,32.50
2019-04-03T01:34:32.090Z,31.35
2019-04-03T01:36:52.637Z,37.70
2019-04-03T01:39:13.125Z,31.97
2019-04-03T01:41:33.695Z,29.65
2019-04-03T01:43:54.414Z,39.23
2019-04-03T01:46:14.925Z,33.35
2019-04-03T01:48:35.819Z,32.63
2019-04-03T01:50:57.777Z,33.40
2019-04-03T01:53:18.732Z,22.85
2019-04-03T01:55:39.366Z,35.78
2019-04-03T01:57:59.935Z,34.92
2019-04-03T02:00:40.043Z,38.73
2019-04-03T02:03:02.140Z,32.17
2019-04-03T02:05:22.823Z,31.35
2019-04-03T02:07:44.693Z,34.90
2019-04-03T02:10:07.715Z,38.70
2019-04-03T02:12:27.978Z,25.82
2019-04-03T02:14:50.993Z,31.85
2019-04-03T02:17:10.776Z,31.93
2019-04-03T02:19:31.375Z,34.98
2019-04-03T02:21:51.899Z,34.27
2019-04-03T02:24:12.478Z,35.08
2019-04-03T02:26:33.110Z,32.13
2019-04-03T02:28:54.840Z,34.13
2019-04-03T02:31:18.243Z,35.28
2019-04-03T02:33:37.648Z,35.03
2019-04-03T02:35:58.334Z,36.25
2019-04-03T02:38:21.443Z,35.98
2019-04-03T02:40:41.376Z,34.00
2019-04-03T02:43:02.459Z,29.85
2019-04-03T02:45:24.305Z,29.75
2019-04-03T02:47:45.517Z,36.20
2019-04-03T02:50:07.538Z,34.40
2019-04-03T02:52:28.231Z,37.90
2019-04-03T02:54:49.243Z,29.23
2019-04-03T02:57:10.023Z,34.98
2019-04-03T02:59:30.890Z,31.90
2019-04-03T03:01:51.655Z,32.10
2019-04-03T03:04:12.372Z,38.58
2019-04-03T03:06:33.649Z,32.28
2019-04-03T03:08:54.880Z,32.73
2019-04-03T03:11:16.065Z,32.40
2019-04-03T03:13:38.198Z,30.77
2019-04-03T03:15:59.749Z,31.50
2019-04-03T03:18:20.643Z,38.02
2019-04-03T03:20:41.983Z,34.88
2019-04-03T03:23:03.096Z,32.45
2019-04-03T03:25:23.936Z,33.10
2019-04-03T03:27:45.322Z,30.40
2019-04-03T03:30:30.945Z,28.98
2019-04-03T03:32:35.214Z,34.48
2019-04-03T03:35:06.359Z,31.37
2019-04-03T03:37:15.026Z,36.33
2019-04-03T03:39:36.575Z,30.37
2019-04-03T03:41:58.573Z,42.25
2019-04-03T03:44:22.739Z,28.07
2019-04-03T03:46:44.156Z,34.10
2019-04-03T03:49:05.128Z,37.25
2019-04-03T03:51:30.172Z,31.75
2019-04-03T03:56:07.874Z,34.05
2019-04-03T03:58:29.434Z,33.55
2019-04-03T04:00:52.189Z,36.95
2019-04-03T04:03:12.953Z,25.17
2019-04-03T04:05:33.996Z,39.70
2019-04-03T04:07:55.677Z,38.65
2019-04-03T04:10:16.478Z,39.55
2019-04-03T04:12:41.320Z,35.88
2019-04-03T04:14:59.123Z,45.77
2019-04-03T04:17:21.049Z,36.40
2019-04-03T04:19:43.842Z,40.52
2019-04-03T04:22:04.449Z,35.55
2019-04-03T04:24:27.622Z,38.23
2019-04-03T04:26:49.921Z,37.42
2019-04-03T04:29:11.119Z,34.78
2019-04-03T04:31:32.092Z,45.75
2019-04-03T04:33:52.918Z,35.10
2019-04-03T04:36:13.779Z,44.85
2019-04-03T04:38:34.369Z,40.55
2019-04-03T04:40:55.207Z,35.10
2019-04-03T04:43:16.845Z,34.70
2019-04-03T04:45:37.727Z,36.28
2019-04-03T04:47:58.417Z,38.85
2019-04-03T04:50:25.355Z,36.23
2019-04-03T04:52:45.635Z,40.43
2019-04-03T04:55:06.362Z,39.27
2019-04-03T04:57:26.902Z,38.78
2019-04-03T04:59:47.515Z,38.80
2019-04-03T05:02:08.191Z,36.58
2019-04-03T05:04:28.970Z,36.38
2019-04-03T05:06:49.581Z,40.20
2019-04-03T05:09:11.562Z,38.75
2019-04-03T05:11:32.143Z,41.23
2019-04-03T05:13:52.948Z,36.05
2019-04-03T05:16:13.567Z,39.45
2019-04-03T05:18:34.295Z,37.58
2019-04-03T05:20:55.336Z,43.20
2019-04-03T05:23:15.923Z,39.98
2019-04-03T05:25:36.529Z,42.48
2019-04-03T05:27:57.744Z,38.15
2019-04-03T05:30:29.363Z,33.13
2019-04-03T05:32:50.029Z,36.45
2019-04-03T05:35:10.726Z,40.12
2019-04-03T05:37:31.484Z,34.60
2019-04-03T05:39:54.740Z,39.05
2019-04-03T05:42:14.343Z,41.68
2019-04-03T05:44:36.560Z,45.45
2019-04-03T05:46:59.340Z,48.48
2019-04-03T05:49:19.714Z,32.53
2019-04-03T05:51:40.313Z,37.35
2019-04-03T05:54:01.094Z,43.17
2019-04-03T05:56:21.846Z,42.17
2019-04-03T05:58:56.946Z,55.58
2019-04-03T06:01:16.809Z,48.55
2019-04-03T06:03:40.699Z,41.80
2019-04-03T06:05:59.663Z,40.23
2019-04-03T06:08:20.733Z,43.25
2019-04-03T06:10:41.342Z,39.48
2019-04-03T06:13:04.903Z,40.48
2019-04-03T06:15:24.315Z,45.48
2019-04-03T06:17:44.899Z,39.75
2019-04-03T06:20:10.395Z,47.60
2019-04-03T06:22:29.859Z,40.92
2019-04-03T06:24:50.628Z,40.78
2019-04-03T06:27:11.260Z,40.20
2019-04-03T06:29:31.738Z,36.98
2019-04-03T06:31:52.271Z,30.80
2019-04-03T06:34:13.013Z,43.42
2019-04-03T06:36:34.468Z,33.83
2019-04-03T06:38:56.083Z,38.63
2019-04-03T06:41:16.695Z,31.87
2019-04-03T06:43:37.201Z,27.30
2019-04-03T06:45:58.303Z,34.03
2019-04-03T06:48:19.010Z,36.77
2019-04-03T06:50:39.263Z,35.87
2019-04-03T06:53:00.602Z,30.30
2019-04-03T06:55:20.948Z,35.77
2019-04-03T06:57:41.215Z,31.20
2019-04-03T07:00:02.496Z,35.67
2019-04-03T07:02:22.816Z,28.63
2019-04-03T07:04:43.392Z,30.17
2019-04-03T07:07:03.795Z,35.60
2019-04-03T07:09:34.168Z,29.53
2019-04-03T07:11:45.855Z,26.27
2019-04-03T07:14:06.194Z,28.17
2019-04-03T07:16:26.803Z,29.33
2019-04-03T07:18:48.460Z,23.70
2019-04-03T07:21:08.844Z,29.67
2019-04-03T07:23:29.963Z,29.43
2019-04-03T07:25:50.583Z,25.70
2019-04-03T07:28:10.839Z,28.70
2019-04-03T07:30:31.244Z,27.80
2019-04-03T07:32:51.559Z,26.40
2019-04-03T07:35:11.997Z,31.30
2019-04-03T07:37:32.591Z,27.40
2019-04-03T07:39:52.987Z,32.90
2019-04-03T07:42:13.221Z,29.40
2019-04-03T07:44:33.703Z,24.93
2019-04-03T07:46:55.274Z,27.57
2019-04-03T07:49:16.032Z,28.80
2019-04-03T07:51:43.719Z,29.30
2019-04-03T07:54:04.976Z,27.27
2019-04-03T07:56:25.898Z,32.03
2019-04-03T07:58:47.053Z,27.57
2019-04-03T08:01:09.511Z,32.60
2019-04-03T08:03:29.655Z,30.62
2019-04-03T08:05:49.969Z,39.17
2019-04-03T08:08:11.266Z,28.63
2019-04-03T08:10:31.842Z,34.17
2019-04-03T08:12:52.183Z,29.90
2019-04-03T08:15:13.875Z,31.10
2019-04-03T08:17:34.191Z,32.13
2019-04-03T08:19:55.209Z,31.27
2019-04-03T08:22:16.866Z,34.80
2019-04-03T08:24:37.937Z,37.58
2019-04-03T08:26:58.529Z,30.65
2019-04-03T08:29:18.820Z,29.18
2019-04-03T08:31:39.079Z,30.90
2019-04-03T08:33:59.986Z,32.50
2019-04-03T08:36:24.918Z,32.27
2019-04-03T08:38:44.855Z,27.93
2019-04-03T08:41:05.333Z,31.77
2019-04-03T08:43:25.624Z,35.13
2019-04-03T08:45:46.227Z,27.53
2019-04-03T08:48:07.270Z,28.00
2019-04-03T08:50:28.803Z,29.10
2019-04-03T08:52:49.439Z,24.90
2019-04-03T08:55:12.912Z,30.07
2019-04-03T08:57:32.101Z,35.85
2019-04-03T08:59:52.001Z,30.20
2019-04-03T09:02:13.167Z,27.35
2019-04-03T09:04:33.271Z,23.10
2019-04-03T09:06:54.526Z,27.63
2019-04-03T09:09:15.575Z,28.10
2019-04-03T09:11:36.309Z,36.20
2019-04-03T09:13:57.150Z,29.77
2019-04-03T09:16:17.138Z,25.43
2019-04-03T09:18:38.352Z,22.07
2019-04-03T09:20:58.642Z,23.20
2019-04-03T09:23:18.564Z,27.30
2019-04-03T09:25:38.464Z,23.80
2019-04-03T09:27:58.814Z,24.72
2019-04-03T09:30:19.698Z,29.97
2019-04-03T09:32:39.973Z,24.20
2019-04-03T09:35:01.433Z,29.57
2019-04-03T09:37:22.249Z,26.40
2019-04-03T09:39:43.013Z,28.00
2019-04-03T09:42:04.447Z,27.63
2019-04-03T09:44:25.884Z,25.87
2019-04-03T09:46:46.156Z,29.83
2019-04-03T09:49:07.573Z,22.00
2019-04-03T09:51:28.536Z,25.27
2019-04-03T09:53:49.220Z,22.87
2019-04-03T09:56:09.511Z,28.40
2019-04-03T09:58:29.786Z,26.20
2019-04-03T10:00:50.065Z,27.67
2019-04-03T10:03:10.724Z,29.60
2019-04-03T10:05:31.157Z,30.80
2019-04-03T10:07:51.650Z,31.43
2019-04-03T10:10:14.060Z,33.40
2019-04-03T10:12:34.606Z,28.05
2019-04-03T10:14:57.040Z,29.85
2019-04-03T10:17:18.753Z,29.57
2019-04-03T10:19:39.132Z,31.17
2019-04-03T10:21:59.663Z,25.67
2019-04-03T10:24:20.097Z,22.13
2019-04-03T10:26:40.913Z,21.60
2019-04-03T10:29:01.658Z,24.30
2019-04-03T10:31:24.233Z,24.83
2019-04-03T10:33:49.795Z,24.30
2019-04-03T10:36:11.415Z,22.83
2019-04-03T10:38:32.039Z,23.77
2019-04-03T10:40:52.104Z,19.67
2019-04-03T10:43:12.132Z,13.05
2019-04-03T10:45:32.672Z,12.67
2019-04-03T10:47:55.443Z,12.27
2019-04-03T10:50:15.119Z,12.17
2019-04-03T10:52:35.699Z,12.17
2019-04-03T10:54:57.299Z,12.23
2019-04-03T10:57:17.634Z,11.93
2019-04-03T10:59:38.082Z,9.00
2019-04-03T11:01:58.692Z,12.33
2019-04-03T11:04:19.083Z,7.77
2019-04-03T11:06:39.437Z,14.97
2019-04-03T11:08:59.979Z,7.80
2019-04-03T11:11:20.255Z,7.87
2019-04-03T11:13:40.484Z,16.13
2019-04-03T11:16:00.763Z,8.47
2019-04-03T11:18:21.788Z,10.20
2019-04-03T11:20:42.418Z,13.33
2019-04-03T11:23:06.439Z,9.97
2019-04-03T11:25:24.846Z,7.93
2019-04-03T11:27:46.125Z,10.30
2019-04-03T11:30:11.884Z,11.80
2019-04-03T11:32:31.716Z,10.80
2019-04-03T11:34:53.763Z,8.53
2019-04-03T11:37:13.891Z,11.17
2019-04-03T11:39:34.256Z,11.93
2019-04-03T11:41:56.169Z,8.40
2019-04-03T11:46:36.486Z,11.40
2019-04-03T11:48:56.515Z,16.62
2019-04-03T11:51:16.720Z,9.25
2019-04-03T11:53:36.932Z,8.33
2019-04-03T11:55:56.910Z,11.00
2019-04-03T11:58:18.026Z,7.75
2019-04-03T12:00:40.384Z,8.13
2019-04-03T12:03:00.624Z,10.57
2019-04-03T12:05:21.560Z,12.07
2019-04-03T12:07:42.228Z,8.77
2019-04-03T12:10:04.184Z,12.57
2019-04-03T12:12:24.767Z,9.60
2019-04-03T12:14:45.041Z,9.80
2019-04-03T12:17:05.687Z,9.93
2019-04-03T12:19:26.211Z,12.77
2019-04-03T12:21:46.775Z,10.70
2019-04-03T12:24:08.521Z,8.70
2019-04-03T12:26:28.827Z,7.93
2019-04-03T12:28:50.060Z,7.80
2019-04-03T12:33:59.040Z,10.60
2019-04-03T12:36:15.890Z,9.40
2019-04-03T12:38:35.873Z,6.97
2019-04-03T12:40:55.884Z,8.60
2019-04-03T12:43:16.562Z,9.60
2019-04-03T12:45:36.865Z,9.37
2019-04-03T12:47:58.054Z,8.43
2019-04-03T12:50:18.649Z,9.80
2019-04-03T12:52:38.919Z,9.80
2019-04-03T12:54:59.060Z,9.03
2019-04-03T12:57:19.245Z,8.60
2019-04-03T12:59:40.351Z,11.13
2019-04-03T13:02:01.012Z,8.07
2019-04-03T13:04:21.332Z,11.97
2019-04-03T13:06:42.367Z,9.37
2019-04-03T13:09:04.297Z,7.53
2019-04-03T13:11:24.862Z,7.90
2019-04-03T13:13:45.070Z,9.83
2019-04-03T13:16:07.365Z,6.50
2019-04-03T13:18:27.872Z,8.23
2019-04-03T13:20:49.190Z,7.80
2019-04-03T13:23:12.458Z,10.60
2019-04-03T13:25:31.442Z,9.87
2019-04-03T13:27:51.915Z,9.03
2019-04-03T13:30:13.757Z,9.47
2019-04-03T13:32:34.149Z,12.47
2019-04-03T13:34:54.387Z,8.87
2019-04-03T13:37:14.654Z,10.70
2019-04-03T13:39:34.983Z,10.10
2019-04-03T13:41:55.422Z,11.40
2019-04-03T13:44:15.696Z,7.20
2019-04-03T13:46:37.531Z,12.17
2019-04-03T13:48:58.171Z,10.93
2019-04-03T13:51:18.842Z,9.63
2019-04-03T13:53:39.235Z,8.53
2019-04-03T13:56:00.029Z,5.30
2019-04-03T13:58:21.117Z,5.77
2019-04-03T14:00:52.105Z,5.90
2019-04-03T14:03:03.995Z,6.40
2019-04-03T14:05:27.248Z,10.90
2019-04-03T14:07:46.231Z,6.37
2019-04-03T14:10:09.869Z,5.17
2019-04-03T14:12:30.140Z,9.90
2019-04-03T14:14:50.382Z,8.60
2019-04-03T14:17:13.060Z,4.80
2019-04-03T14:19:42.546Z,8.80
2019-04-03T14:21:54.546Z,6.23
2019-04-03T14:24:14.645Z,13.90
2019-04-03T14:26:35.421Z,8.80
2019-04-03T14:28:55.789Z,17.92
2019-04-03T14:31:17.874Z,7.80
2019-04-03T14:33:44.207Z,7.03
2019-04-03T14:35:59.450Z,17.50
2019-04-03T14:38:19.503Z,12.10
2019-04-03T14:40:39.558Z,14.10
2019-04-03T14:43:00.262Z,12.73
2019-04-03T14:45:21.065Z,29.57
2019-04-03T14:47:41.822Z,66.87
2019-04-03T14:50:05.334Z,91.10
2019-04-03T14:54:45.135Z,78.85
2019-04-03T14:57:13.318Z,34.13
2019-04-03T14:59:29.518Z,16.32
2019-04-03T15:01:50.718Z,12.37
2019-04-03T15:04:10.799Z,10.20
2019-04-03T15:06:31.085Z,12.80
2019-04-03T15:08:53.949Z,21.55
2019-04-03T15:11:13.463Z,10.33
2019-04-03T15:13:33.738Z,15.10
2019-04-03T15:15:54.505Z,7.60
2019-04-03T15:18:15.289Z,7.27
2019-04-03T15:20:35.527Z,7.13
2019-04-03T15:22:56.043Z,9.00
2019-04-03T15:25:19.603Z,8.77
2019-04-03T15:27:39.185Z,5.97
2019-04-03T15:29:59.996Z,8.47
2019-04-03T15:32:21.659Z,5.00
2019-04-03T15:34:41.949Z,9.40
2019-04-03T15:37:02.288Z,4.37
2019-04-03T15:39:23.397Z,4.07
2019-04-03T15:41:43.664Z,5.50
2019-04-03T15:44:05.016Z,5.07
2019-04-03T15:46:25.326Z,10.90
2019-04-03T15:48:45.686Z,7.03
2019-04-03T15:51:07.184Z,4.17
2019-04-03T15:53:27.464Z,7.20
2019-04-03T15:55:48.035Z,5.03
2019-04-03T15:58:08.392Z,7.70
2019-04-03T16:00:29.393Z,6.60
2019-04-03T16:02:49.594Z,5.83
2019-04-03T16:05:10.703Z,6.67
2019-04-03T16:07:33.254Z,5.17
2019-04-03T16:09:52.867Z,7.97
2019-04-03T16:12:13.618Z,8.50
2019-04-03T16:14:34.094Z,7.90
2019-04-03T16:16:54.329Z,6.77
2019-04-03T16:19:14.623Z,6.20
2019-04-03T16:21:34.951Z,15.77
2019-04-03T16:23:55.190Z,10.07
2019-04-03T16:26:15.917Z,10.23
2019-04-03T16:28:36.179Z,8.20
2019-04-03T16:30:56.987Z,7.70
2019-04-03T16:33:22.456Z,8.93
2019-04-03T16:35:39.459Z,11.60
2019-04-03T16:38:00.282Z,10.97
2019-04-03T16:40:20.630Z,8.00
2019-04-03T16:42:40.968Z,7.53
2019-04-03T16:45:04.482Z,10.07
2019-04-03T16:47:23.480Z,8.63
2019-04-03T16:49:43.813Z,14.07
2019-04-03T16:52:05.606Z,9.77
2019-04-03T16:54:28.780Z,10.87
2019-04-03T16:56:50.600Z,7.80
2019-04-03T16:59:10.914Z,8.53
2019-04-03T17:01:31.220Z,8.77
2019-04-03T17:03:51.444Z,8.00
2019-04-03T17:06:15.346Z,9.83
2019-04-03T17:08:33.906Z,11.97
2019-04-03T17:10:54.222Z,9.63
2019-04-03T17:13:14.574Z,7.97
2019-04-03T17:15:35.757Z,10.97
2019-04-03T17:17:56.383Z,9.07
2019-04-03T17:20:17.231Z,11.40
2019-04-03T17:22:40.217Z,9.20
2019-04-03T17:25:00.106Z,7.27
2019-04-03T17:27:22.045Z,9.40
2019-04-03T17:29:43.809Z,12.75
2019-04-03T17:32:07.673Z,10.32
2019-04-03T17:34:26.811Z,7.37
2019-04-03T17:36:46.831Z,15.25
2019-04-03T17:39:09.045Z,9.85
2019-04-03T17:41:30.614Z,12.77
2019-04-03T17:43:53.179Z,10.15
2019-04-03T17:46:13.213Z,12.73
2019-04-03T17:48:33.786Z,11.50
2019-04-03T17:53:00.194Z,12.45
2019-04-03T17:55:20.875Z,12.20
2019-04-03T17:57:40.839Z,12.98
2019-04-03T18:00:01.172Z,10.23
2019-04-03T18:02:22.814Z,12.20
2019-04-03T18:04:43.555Z,11.87
2019-04-03T18:07:04.740Z,8.90
2019-04-03T18:09:25.275Z,14.70
2019-04-03T18:11:47.426Z,9.73
2019-04-03T18:14:07.429Z,13.18
2019-04-03T18:16:27.926Z,11.10
2019-04-03T18:18:50.127Z,9.10
2019-04-03T18:21:12.940Z,10.90
2019-04-03T18:23:32.596Z,13.43
2019-04-03T18:25:53.822Z,10.60
2019-04-03T18:28:14.459Z,11.88
2019-04-03T18:30:35.381Z,11.15
2019-04-03T18:32:55.935Z,10.68
2019-04-03T18:35:16.075Z,8.60
2019-04-03T18:37:36.670Z,19.57
2019-04-03T18:39:57.259Z,11.38
2019-04-03T18:42:18.627Z,12.28
2019-04-03T18:44:39.096Z,21.23
2019-04-03T18:46:59.334Z,9.00
2019-04-03T18:49:20.016Z,12.00
2019-04-03T18:51:40.565Z,13.22
2019-04-03T18:54:01.045Z,15.25
2019-04-03T18:56:21.079Z,11.38
2019-04-03T18:58:43.961Z,11.22
2019-04-03T19:01:04.511Z,10.15
2019-04-03T19:03:25.156Z,12.63
2019-04-03T19:05:45.243Z,15.08
2019-04-03T19:08:13.062Z,9.78
2019-04-03T19:10:28.783Z,12.98
2019-04-03T19:12:49.344Z,10.60
2019-04-03T19:15:09.853Z,12.00
2019-04-03T19:17:30.488Z,13.22
2019-04-03T19:19:51.062Z,14.95
2019-04-03T19:22:11.601Z,12.68
2019-04-03T19:24:32.184Z,17.57
2019-04-03T19:26:52.868Z,16.45
2019-04-03T19:29:12.804Z,14.87
2019-04-03T19:31:33.389Z,13.62
2019-04-03T19:33:53.371Z,15.95
2019-04-03T19:36:13.984Z,19.35
2019-04-03T19:38:35.845Z,12.47
2019-04-03T19:40:56.685Z,11.97
2019-04-03T19:43:17.231Z,17.35
2019-04-03T19:45:37.302Z,13.80
2019-04-03T19:47:57.219Z,12.78
2019-04-03T19:50:18.107Z,12.50
2019-04-03T19:52:41.580Z,14.45
2019-04-03T19:55:01.027Z,12.25
2019-04-03T19:57:21.697Z,15.10
2019-04-03T19:59:43.291Z,13.10
2019-04-03T20:02:03.955Z,13.90
2019-04-03T20:04:24.044Z,16.12
2019-04-03T20:06:44.101Z,24.12
2019-04-03T20:09:05.794Z,14.63
2019-04-03T20:11:26.506Z,13.60
2019-04-03T20:13:47.104Z,15.78
2019-04-03T20:16:07.577Z,19.87
2019-04-03T20:18:28.222Z,18.48
2019-04-03T20:20:48.759Z,21.25
2019-04-03T20:23:10.739Z,17.30
2019-04-03T20:25:31.248Z,11.97
2019-04-03T20:27:52.442Z,22.22
2019-04-03T20:30:13.625Z,19.57
2019-04-03T20:32:34.280Z,17.73
2019-04-03T20:34:55.266Z,18.17
2019-04-03T20:37:18.498Z,28.10
2019-04-03T20:39:38.587Z,21.30
2019-04-03T20:41:59.126Z,19.42
2019-04-03T20:44:19.677Z,19.10
2019-04-03T20:46:40.159Z,17.00
2019-04-03T20:49:03.033Z,19.92
2019-04-03T20:51:24.036Z,18.80
2019-04-03T20:53:44.805Z,22.15
2019-04-03T20:56:06.483Z,19.55
2019-04-03T20:58:27.629Z,28.15
2019-04-03T21:00:49.970Z,22.15
2019-04-03T21:03:12.590Z,12.35
2019-04-03T21:05:32.968Z,21.00
2019-04-03T21:07:55.729Z,21.85
2019-04-03T21:10:15.917Z,23.35
2019-04-03T21:12:36.479Z,24.32
2019-04-03T21:15:07.630Z,18.92
2019-04-03T21:17:19.440Z,23.00
2019-04-03T21:19:40.336Z,21.15
2019-04-03T21:22:00.969Z,20.88
2019-04-03T21:24:21.575Z,19.10
2019-04-03T21:26:42.136Z,20.92
2019-04-03T21:29:02.628Z,21.00
2019-04-03T21:31:25.607Z,21.55
2019-04-03T21:33:45.375Z,19.42
2019-04-03T21:36:07.583Z,21.33
2019-04-03T21:38:28.426Z,23.77
2019-04-03T21:40:48.979Z,25.43
2019-04-03T21:43:09.534Z,21.97
2019-04-03T21:45:30.222Z,22.95
2019-04-03T21:47:50.753Z,22.42
2019-04-03T21:50:11.542Z,21.60
2019-04-03T21:52:32.044Z,26.15
2019-04-03T21:54:52.650Z,23.40
2019-04-03T21:57:13.246Z,21.93
2019-04-03T21:59:33.819Z,21.40
2019-04-03T22:01:54.469Z,20.05
2019-04-03T22:04:15.625Z,23.30
2019-04-03T22:06:36.640Z,27.37
2019-04-03T22:08:59.687Z,34.55
2019-04-03T22:11:19.512Z,23.52
2019-04-03T22:13:40.081Z,21.20
2019-04-03T22:16:00.629Z,20.92
2019-04-03T22:18:23.509Z,23.55
2019-04-03T22:20:44.000Z,22.67
2019-04-03T22:23:05.569Z,26.00
2019-04-03T22:25:26.915Z,27.32
2019-04-03T22:27:48.147Z,23.50
2019-04-03T22:30:09.473Z,23.62
2019-04-03T22:32:30.748Z,22.00
2019-04-03T22:34:52.431Z,21.85
2019-04-03T22:37:14.285Z,25.55
2019-04-03T22:39:40.154Z,20.68
2019-04-03T22:42:05.671Z,19.80
2019-04-03T22:44:27.466Z,23.00
2019-04-03T22:46:48.988Z,26.40
2019-04-03T22:49:10.136Z,23.62
2019-04-03T22:51:31.322Z,23.22
2019-04-03T22:53:52.811Z,23.70
2019-04-03T22:56:16.559Z,18.77
2019-04-03T22:58:36.616Z,26.30
2019-04-03T23:00:59.306Z,20.90
2019-04-03T23:03:20.382Z,16.30
2019-04-03T23:05:41.616Z,19.02
2019-04-03T23:08:03.167Z,20.88
2019-04-03T23:10:24.620Z,19.52
2019-04-03T23:12:52.293Z,20.55
2019-04-03T23:15:13.209Z,22.22
2019-04-03T23:17:34.354Z,19.50
2019-04-03T23:19:55.408Z,22.30
2019-04-03T23:22:16.568Z,20.70
2019-04-03T23:24:37.584Z,23.45
2019-04-03T23:26:58.820Z,21.25
2019-04-03T23:29:19.792Z,24.52
2019-04-03T23:31:40.265Z,19.80
2019-04-03T23:34:00.774Z,22.60
2019-04-03T23:36:22.968Z,19.55
2019-04-03T23:38:43.624Z,20.30
2019-04-03T23:41:06.114Z,20.70
2019-04-03T23:43:28.578Z,19.80
2019-04-03T23:45:49.186Z,22.58
2019-04-03T23:48:09.793Z,20.55
2019-04-03T23:50:30.338Z,20.72
2019-04-03T23:52:51.039Z,22.67
2019-04-03T23:55:11.667Z,24.92
2019-04-03T23:57:32.205Z,19.55
2019-04-03T23:59:52.891Z,20.43
